Portada
METAR-TAF:

METAR-TAF

Aeropuertos :

Aeropuerto Internacional de Piarco

Puerto España, Trinidad, Trinidad y Tobago

latitud: 10-37N, longitud: 061-21W, altitud: 12 m

Observación

El informe se hizo hace 25 minutos, a las 10:00 UTC
Viento calma
Temperatura 21°C
Humedad 94%
Presión 1013 hPa
Visibilidad 10 km o más
Escasas nubes a una altura de 1600 ft

METAR: TTPP 271000Z 00000KT 9999 FEW016 21/20 Q1013 NOSIG

Hora: 06:25 (10:25 UTC)

Pronóstico

El informe se hizo hace 6 horas y 25 minutos, a las 04:00 UTC
Pronóstico válido del 27 a las 06 UTC al 28 a las 06 UTC
Viento kt del norte
Visibilidad 10 km o más
Escasas nubes a una altura de 1600 ft
Evolucionando progresivamente
del 27 a las 12 UTC al 27 a las 14 UTC
Viento 8 kt del este

TAF: TTPP 270400Z 2706/2806 00000KT 9999 FEW016 BECMG 2712/2714 10008KT

Observaciones y pronósticos meteorológicos de más de 4000 aeropuertos (mensajes METAR y TAF).

Los puntos amarillos y rojos representan las estaciones disponibles.

Ponga el ratón en el punto deseado para ver el nombre de la estación.

Haga clic para ver las observaciones y los pronósticos meteorológicos.

Para cambiar el mapa : haga clic en los botones verdes con una cruz de color negro para hacer un zoom, en el botón verde con un guión para alejar o en las flechas verdes para mapas adyacentes.


METAR-TAF: